< Typhoon 195502 1955 Season Typhoon 195504 >
Typhoon 195503 (WILDA)
General InformationTrack Information on Google Maps || Disaster Info.ResourceGoogle EarthGE AnimationAtom FeedGeoJSON
Detalied Best Track (Time Zone = UTC)
Year Month Day Hour Lat. Long. Pressure (hPa) Wind (kt) Class Image Chart
1955 3 21 06 6.7 168.2 998 0 2 -- Chart
1955 3 21 12 7.2 167.8 998 0 2 -- Chart
1955 3 21 18 7.7 167.4 996 0 2 -- Chart
1955 3 22 00 8.3 167.1 996 0 2 -- Chart
1955 3 22 06 9.2 166.3 995 0 2 -- Chart
1955 3 22 12 9.3 165.7 995 0 9 -- Chart
1955 3 22 18 9.4 165.3 995 0 9 -- Chart
1955 3 23 00 9.6 164.8 1000 0 2 -- Chart
1955 3 23 06 9.9 164.4 998 0 2 -- Chart
1955 3 23 12 10.9 164.2 998 0 2 -- Chart
1955 3 23 18 12.2 163.8 1000 0 2 -- Chart
1955 3 24 00 13.3 163.2 1002 0 9 -- Chart
1955 3 24 06 14.3 162.7 1000 0 9 -- Chart
1955 3 24 12 15.4 161.8 1002 0 9 -- Chart
1955 3 24 18 16.3 160.9 1000 0 9 -- Chart
1955 3 25 00 17.5 160.2 999 0 9 -- Chart
1955 3 25 06 18.4 159.4 995 0 9 -- Chart
1955 3 25 12 19.3 158.8 990 0 9 -- Chart
1955 3 25 18 20.3 158.2 990 0 9 -- Chart
1955 3 26 00 21.5 158.2 985 0 9 -- Chart
1955 3 26 06 22.2 158.6 990 0 9 -- Chart
1955 3 26 12 23.1 158.4 990 0 9 -- Chart
1955 3 26 18 24.0 158.2 995 0 9 -- Chart
1955 3 27 00 24.8 158.3 995 0 9 -- Chart
1955 3 27 06 25.1 159.3 995 0 9 -- Chart
1955 3 27 12 25.5 161.0 990 0 9 -- Chart
1955 3 27 18 25.8 162.8 1000 0 9 -- Chart
1955 3 28 00 26.4 164.5 1005 0 9 -- Chart
1955 3 28 06 26.6 165.8 1006 0 9 -- Chart
1955 3 28 12 26.9 166.9 1006 0 9 -- Chart
1955 3 28 18 27.3 168.2 1006 0 9 -- Chart
1955 3 29 00 27.6 169.4 1008 0 9 -- Chart
1955 3 29 06 27.9 170.5 1010 0 9 -- Chart
1955 3 29 12 28.3 171.9 1010 0 6 -- Chart
1955 3 29 18 28.7 173.2 1012 0 6 -- Chart
1955 3 30 00 29.2 174.1 1014 0 6 -- Chart
1955 3 30 06 29.6 175.3 1012 0 6 -- Chart
1955 3 30 12 29.8 176.4 1014 0 6 -- Chart
1955 3 30 18 30.0 177.0 1016 0 6 -- Chart
Japan Meteorological Agency Best Track Data | Correction Date : 1989-06-01
< Typhoon 195502 1955 Season Typhoon 195504 >

Help